sensor_id;sensor_type;location;lat;lon;timestamp;pressure;altitude;pressure_sealevel;temperature;humidity
29371;BME280;16357;52.188;7.838;2022-07-29T00:02:25;101004.94;;;20.13;39.36
29371;BME280;16357;52.188;7.838;2022-07-29T00:04:52;100994.25;;;20.11;39.56
29371;BME280;16357;52.188;7.838;2022-07-29T00:07:18;100996.38;;;20.09;39.68
29371;BME280;16357;52.188;7.838;2022-07-29T00:09:45;101001.19;;;20.07;39.49
29371;BME280;16357;52.188;7.838;2022-07-29T00:12:19;100990.28;;;20.07;39.70
29371;BME280;16357;52.188;7.838;2022-07-29T00:14:55;100987.16;;;20.04;39.46
29371;BME280;16357;52.188;7.838;2022-07-29T00:17:22;100987.38;;;20.02;39.72
29371;BME280;16357;52.188;7.838;2022-07-29T00:19:49;100978.81;;;19.99;39.73
29371;BME280;16357;52.188;7.838;2022-07-29T00:22:16;100976.47;;;19.95;39.85
29371;BME280;16357;52.188;7.838;2022-07-29T00:24:42;100983.81;;;19.95;39.92
29371;BME280;16357;52.188;7.838;2022-07-29T00:27:09;100972.28;;;19.93;39.86
29371;BME280;16357;52.188;7.838;2022-07-29T00:29:35;100972.53;;;19.91;40.01
29371;BME280;16357;52.188;7.838;2022-07-29T00:32:02;100974.41;;;19.91;40.02
29371;BME280;16357;52.188;7.838;2022-07-29T00:34:30;100965.38;;;19.90;40.02
29371;BME280;16357;52.188;7.838;2022-07-29T00:37:15;100972.72;;;19.90;39.97
29371;BME280;16357;52.188;7.838;2022-07-29T00:39:42;100970.63;;;19.92;39.97
29371;BME280;16357;52.188;7.838;2022-07-29T00:42:09;100970.44;;;19.93;39.97
29371;BME280;16357;52.188;7.838;2022-07-29T00:44:40;100969.56;;;19.93;39.87
29371;BME280;16357;52.188;7.838;2022-07-29T00:47:08;100973.34;;;19.92;39.85
29371;BME280;16357;52.188;7.838;2022-07-29T00:49:35;100970.63;;;19.92;39.95
29371;BME280;16357;52.188;7.838;2022-07-29T00:52:04;100980.47;;;19.93;40.09
29371;BME280;16357;52.188;7.838;2022-07-29T00:54:32;100983.81;;;19.95;39.73
29371;BME280;16357;52.188;7.838;2022-07-29T00:57:00;100973.16;;;19.93;39.94
29371;BME280;16357;52.188;7.838;2022-07-29T00:59:27;100972.91;;;19.95;39.99
29371;BME280;16357;52.188;7.838;2022-07-29T01:02:00;100962.66;;;19.97;40.09
29371;BME280;16357;52.188;7.838;2022-07-29T01:04:27;100969.56;;;20.00;39.93
29371;BME280;16357;52.188;7.838;2022-07-29T01:06:55;100962.84;;;20.02;39.77
29371;BME280;16357;52.188;7.838;2022-07-29T01:09:23;100955.31;;;20.04;39.82
29371;BME280;16357;52.188;7.838;2022-07-29T01:12:10;100941.47;;;20.06;39.90
29371;BME280;16357;52.188;7.838;2022-07-29T01:14:39;100944.00;;;20.07;39.82
29371;BME280;16357;52.188;7.838;2022-07-29T01:17:12;100941.91;;;20.09;39.81
29371;BME280;16357;52.188;7.838;2022-07-29T01:23:20;100943.56;;;20.10;39.45
29371;BME280;16357;52.188;7.838;2022-07-29T01:26:18;100940.19;;;20.08;39.79
29371;BME280;16357;52.188;7.838;2022-07-29T01:29:00;100935.59;;;20.09;39.46
29371;BME280;16357;52.188;7.838;2022-07-29T01:31:41;100938.53;;;20.07;39.46
29371;BME280;16357;52.188;7.838;2022-07-29T01:34:50;100931.41;;;20.06;39.66
29371;BME280;16357;52.188;7.838;2022-07-29T01:37:24;100927.84;;;20.06;39.67
29371;BME280;16357;52.188;7.838;2022-07-29T01:39:54;100935.41;;;20.04;39.79
29371;BME280;16357;52.188;7.838;2022-07-29T01:42:29;100928.50;;;20.01;40.01
29371;BME280;16357;52.188;7.838;2022-07-29T01:45:51;100938.53;;;20.01;39.54
29371;BME280;16357;52.188;7.838;2022-07-29T01:48:26;100930.59;;;19.99;39.88
29371;BME280;16357;52.188;7.838;2022-07-29T01:51:02;100923.69;;;19.97;39.79
29371;BME280;16357;52.188;7.838;2022-07-29T01:53:38;100926.63;;;19.95;39.73
29371;BME280;16357;52.188;7.838;2022-07-29T01:56:06;100925.16;;;19.92;40.14
29371;BME280;16357;52.188;7.838;2022-07-29T01:58:34;100922.69;;;19.91;40.04
29371;BME280;16357;52.188;7.838;2022-07-29T02:01:02;100920.97;;;19.90;40.28
29371;BME280;16357;52.188;7.838;2022-07-29T02:03:31;100919.31;;;19.89;40.23
29371;BME280;16357;52.188;7.838;2022-07-29T02:06:00;100914.31;;;19.86;40.30
29371;BME280;16357;52.188;7.838;2022-07-29T02:08:28;100897.34;;;19.84;40.33
29371;BME280;16357;52.188;7.838;2022-07-29T02:10:56;100901.31;;;19.81;40.22
29371;BME280;16357;52.188;7.838;2022-07-29T02:13:25;100897.16;;;19.79;40.49
29371;BME280;16357;52.188;7.838;2022-07-29T02:15:54;100899.66;;;19.73;40.70
29371;BME280;16357;52.188;7.838;2022-07-29T02:18:23;100899.47;;;19.68;40.54
29371;BME280;16357;52.188;7.838;2022-07-29T02:20:55;100897.78;;;19.61;40.73
29371;BME280;16357;52.188;7.838;2022-07-29T02:23:23;100896.94;;;19.53;41.09
29371;BME280;16357;52.188;7.838;2022-07-29T02:25:55;100902.22;;;19.48;40.91
29371;BME280;16357;52.188;7.838;2022-07-29T02:28:25;100900.13;;;19.44;40.99
29371;BME280;16357;52.188;7.838;2022-07-29T02:30:53;100895.50;;;19.38;41.14
29371;BME280;16357;52.188;7.838;2022-07-29T02:33:23;100887.56;;;19.36;41.19
29371;BME280;16357;52.188;7.838;2022-07-29T02:35:51;100889.00;;;19.32;41.45
29371;BME280;16357;52.188;7.838;2022-07-29T02:38:20;100894.88;;;19.29;41.65
29371;BME280;16357;52.188;7.838;2022-07-29T02:41:11;100897.84;;;19.27;41.56
29371;BME280;16357;52.188;7.838;2022-07-29T02:43:39;100892.19;;;19.22;41.87
29371;BME280;16357;52.188;7.838;2022-07-29T02:46:11;100892.56;;;19.19;41.64
29371;BME280;16357;52.188;7.838;2022-07-29T02:49:07;100900.31;;;19.16;41.37
29371;BME280;16357;52.188;7.838;2022-07-29T02:51:44;100888.22;;;19.12;41.42
29371;BME280;16357;52.188;7.838;2022-07-29T02:54:21;100890.28;;;19.10;41.71
29371;BME280;16357;52.188;7.838;2022-07-29T02:56:49;100887.38;;;19.04;42.01
29371;BME280;16357;52.188;7.838;2022-07-29T02:59:23;100900.31;;;19.02;41.97
29371;BME280;16357;52.188;7.838;2022-07-29T03:01:52;100893.63;;;18.98;42.33
29371;BME280;16357;52.188;7.838;2022-07-29T03:04:20;100892.19;;;18.96;42.20
29371;BME280;16357;52.188;7.838;2022-07-29T03:06:49;100902.19;;;18.95;42.41
29371;BME280;16357;52.188;7.838;2022-07-29T03:09:17;100899.69;;;18.94;42.34
29371;BME280;16357;52.188;7.838;2022-07-29T03:11:44;100895.09;;;18.94;42.71
29371;BME280;16357;52.188;7.838;2022-07-29T03:14:19;100897.63;;;18.96;42.11
29371;BME280;16357;52.188;7.838;2022-07-29T03:16:47;100890.47;;;18.95;42.42
29371;BME280;16357;52.188;7.838;2022-07-29T03:19:14;100892.38;;;18.94;42.49
29371;BME280;16357;52.188;7.838;2022-07-29T03:21:41;100884.22;;;18.94;42.62
29371;BME280;16357;52.188;7.838;2022-07-29T03:24:07;100881.50;;;18.94;42.54
29371;BME280;16357;52.188;7.838;2022-07-29T03:26:37;100884.41;;;18.93;42.77
29371;BME280;16357;52.188;7.838;2022-07-29T03:29:04;100885.47;;;18.92;42.88
29371;BME280;16357;52.188;7.838;2022-07-29T03:31:31;100889.03;;;18.92;42.59
29371;BME280;16357;52.188;7.838;2022-07-29T03:33:58;100893.81;;;18.90;42.55
29371;BME280;16357;52.188;7.838;2022-07-29T03:36:25;100885.88;;;18.89;42.33
29371;BME280;16357;52.188;7.838;2022-07-29T03:38:51;100882.34;;;18.88;42.72
29371;BME280;16357;52.188;7.838;2022-07-29T03:41:19;100876.91;;;18.88;42.79
29371;BME280;16357;52.188;7.838;2022-07-29T03:43:49;100881.47;;;18.88;42.83
29371;BME280;16357;52.188;7.838;2022-07-29T03:46:20;100877.94;;;18.87;42.81
29371;BME280;16357;52.188;7.838;2022-07-29T03:48:50;100878.34;;;18.84;42.48
29371;BME280;16357;52.188;7.838;2022-07-29T03:51:18;100879.59;;;18.81;42.85
29371;BME280;16357;52.188;7.838;2022-07-29T03:53:58;100874.59;;;18.78;42.96
29371;BME280;16357;52.188;7.838;2022-07-29T03:56:27;100878.34;;;18.77;42.79
29371;BME280;16357;52.188;7.838;2022-07-29T03:58:54;100879.59;;;18.75;43.14
29371;BME280;16357;52.188;7.838;2022-07-29T04:01:22;100879.97;;;18.72;42.97
29371;BME280;16357;52.188;7.838;2022-07-29T04:03:48;100887.50;;;18.70;42.92
29371;BME280;16357;52.188;7.838;2022-07-29T04:06:15;100901.28;;;18.68;43.07
29371;BME280;16357;52.188;7.838;2022-07-29T04:08:42;100892.50;;;18.66;43.35
29371;BME280;16357;52.188;7.838;2022-07-29T04:11:08;100905.44;;;18.64;43.40
29371;BME280;16357;52.188;7.838;2022-07-29T04:13:35;100897.53;;;18.62;43.15
29371;BME280;16357;52.188;7.838;2022-07-29T04:16:01;100905.88;;;18.61;43.52
29371;BME280;16357;52.188;7.838;2022-07-29T04:18:28;100888.94;;;18.59;43.27
29371;BME280;16357;52.188;7.838;2022-07-29T04:20:54;100889.16;;;18.57;43.60
29371;BME280;16357;52.188;7.838;2022-07-29T04:23:21;100888.31;;;18.57;43.45
29371;BME280;16357;52.188;7.838;2022-07-29T04:25:47;100885.78;;;18.55;43.52
29371;BME280;16357;52.188;7.838;2022-07-29T04:28:14;100901.25;;;18.55;43.42
29371;BME280;16357;52.188;7.838;2022-07-29T04:30:42;100891.22;;;18.55;43.54
29371;BME280;16357;52.188;7.838;2022-07-29T04:33:08;100893.09;;;18.55;43.89
29371;BME280;16357;52.188;7.838;2022-07-29T04:35:38;100897.50;;;18.56;43.58
29371;BME280;16357;52.188;7.838;2022-07-29T04:38:17;100898.53;;;18.55;43.64
29371;BME280;16357;52.188;7.838;2022-07-29T04:40:44;100903.78;;;18.56;43.82
29371;BME280;16357;52.188;7.838;2022-07-29T04:43:10;100903.56;;;18.58;43.89
29371;BME280;16357;52.188;7.838;2022-07-29T04:45:39;100889.56;;;18.61;43.65
29371;BME280;16357;52.188;7.838;2022-07-29T04:48:05;100887.47;;;18.63;43.77
29371;BME280;16357;52.188;7.838;2022-07-29T04:50:32;100895.84;;;18.68;43.81
29371;BME280;16357;52.188;7.838;2022-07-29T04:52:58;100896.28;;;18.72;43.73
29371;BME280;16357;52.188;7.838;2022-07-29T04:55:25;100886.69;;;18.76;43.70
29371;BME280;16357;52.188;7.838;2022-07-29T04:57:51;100881.69;;;18.79;43.66
29371;BME280;16357;52.188;7.838;2022-07-29T05:00:18;100880.25;;;18.83;43.71
29371;BME280;16357;52.188;7.838;2022-07-29T05:02:44;100881.72;;;18.86;43.52
29371;BME280;16357;52.188;7.838;2022-07-29T05:05:11;100880.22;;;18.90;43.68
29371;BME280;16357;52.188;7.838;2022-07-29T05:07:40;100885.03;;;18.95;43.46
29371;BME280;16357;52.188;7.838;2022-07-29T05:10:07;100876.69;;;18.96;43.60
29371;BME280;16357;52.188;7.838;2022-07-29T05:12:34;100881.28;;;19.02;43.59
29371;BME280;16357;52.188;7.838;2022-07-29T05:15:00;100875.44;;;19.05;43.54
29371;BME280;16357;52.188;7.838;2022-07-29T05:17:27;100882.97;;;19.10;43.57
29371;BME280;16357;52.188;7.838;2022-07-29T05:19:53;100885.06;;;19.15;43.42
29371;BME280;16357;52.188;7.838;2022-07-29T05:22:20;100889.84;;;19.19;43.47
29371;BME280;16357;52.188;7.838;2022-07-29T05:24:47;100900.94;;;19.24;43.30
29371;BME280;16357;52.188;7.838;2022-07-29T05:27:13;100892.41;;;19.27;43.24
29371;BME280;16357;52.188;7.838;2022-07-29T05:29:40;100890.06;;;19.31;43.29
29371;BME280;16357;52.188;7.838;2022-07-29T05:32:12;100903.06;;;19.36;43.18
29371;BME280;16357;52.188;7.838;2022-07-29T05:34:39;100892.38;;;19.41;43.11
29371;BME280;16357;52.188;7.838;2022-07-29T05:37:18;100899.69;;;19.47;42.81
29371;BME280;16357;52.188;7.838;2022-07-29T05:39:45;100892.56;;;19.52;42.93
29371;BME280;16357;52.188;7.838;2022-07-29T05:42:21;100895.88;;;19.61;43.02
29371;BME280;16357;52.188;7.838;2022-07-29T05:44:47;100898.41;;;19.69;42.75
29371;BME280;16357;52.188;7.838;2022-07-29T05:47:14;100900.94;;;19.78;42.71
29371;BME280;16357;52.188;7.838;2022-07-29T05:49:40;100901.72;;;19.85;42.59
29371;BME280;16357;52.188;7.838;2022-07-29T05:52:07;100896.28;;;19.91;42.53
29371;BME280;16357;52.188;7.838;2022-07-29T05:54:35;100898.56;;;20.01;42.71
29371;BME280;16357;52.188;7.838;2022-07-29T05:57:02;100907.09;;;20.11;42.34
29371;BME280;16357;52.188;7.838;2022-07-29T05:59:29;100899.09;;;20.23;42.54
29371;BME280;16357;52.188;7.838;2022-07-29T06:01:56;100907.41;;;20.35;42.46
29371;BME280;16357;52.188;7.838;2022-07-29T06:04:23;100908.19;;;20.49;42.23
29371;BME280;16357;52.188;7.838;2022-07-29T06:06:50;100907.28;;;20.61;41.96
29371;BME280;16357;52.188;7.838;2022-07-29T06:09:17;100912.69;;;20.75;41.65
29371;BME280;16357;52.188;7.838;2022-07-29T06:11:43;100917.44;;;20.86;41.22
29371;BME280;16357;52.188;7.838;2022-07-29T06:14:10;100918.81;;;20.95;41.05
29371;BME280;16357;52.188;7.838;2022-07-29T06:16:36;100915.22;;;21.01;40.82
29371;BME280;16357;52.188;7.838;2022-07-29T06:19:03;100920.88;;;21.07;40.60
29371;BME280;16357;52.188;7.838;2022-07-29T06:21:30;100907.00;;;21.08;40.58
29371;BME280;16357;52.188;7.838;2022-07-29T06:23:56;100913.06;;;21.10;40.70
29371;BME280;16357;52.188;7.838;2022-07-29T06:26:23;100916.63;;;21.11;40.59
29371;BME280;16357;52.188;7.838;2022-07-29T06:28:56;100925.44;;;21.13;40.49
29371;BME280;16357;52.188;7.838;2022-07-29T06:31:23;100923.31;;;21.15;40.33
29371;BME280;16357;52.188;7.838;2022-07-29T06:33:50;100924.78;;;21.17;40.22
29371;BME280;16357;52.188;7.838;2022-07-29T06:36:19;100924.53;;;21.19;40.30
29371;BME280;16357;52.188;7.838;2022-07-29T06:38:46;100923.25;;;21.21;40.36
29371;BME280;16357;52.188;7.838;2022-07-29T06:41:17;100936.44;;;21.24;40.40
29371;BME280;16357;52.188;7.838;2022-07-29T06:43:45;100936.84;;;21.28;40.11
29371;BME280;16357;52.188;7.838;2022-07-29T06:46:21;100941.84;;;21.31;40.28
29371;BME280;16357;52.188;7.838;2022-07-29T06:48:48;100935.34;;;21.32;40.05
29371;BME280;16357;52.188;7.838;2022-07-29T06:51:15;100932.41;;;21.34;40.30
29371;BME280;16357;52.188;7.838;2022-07-29T06:53:48;100934.88;;;21.35;40.33
29371;BME280;16357;52.188;7.838;2022-07-29T06:56:32;100937.22;;;21.38;40.49
29371;BME280;16357;52.188;7.838;2022-07-29T06:59:05;100934.03;;;21.41;40.16
29371;BME280;16357;52.188;7.838;2022-07-29T07:01:31;100935.88;;;21.47;40.61
29371;BME280;16357;52.188;7.838;2022-07-29T07:03:58;100944.84;;;21.55;40.38
29371;BME280;16357;52.188;7.838;2022-07-29T07:06:24;100951.09;;;21.62;40.48
29371;BME280;16357;52.188;7.838;2022-07-29T07:08:51;100954.34;;;21.70;40.33
29371;BME280;16357;52.188;7.838;2022-07-29T07:11:17;100959.31;;;21.80;39.83
29371;BME280;16357;52.188;7.838;2022-07-29T07:13:44;100953.91;;;21.92;39.98
29371;BME280;16357;52.188;7.838;2022-07-29T07:16:10;100951.03;;;22.05;40.02
29371;BME280;16357;52.188;7.838;2022-07-29T07:18:37;100953.66;;;22.19;40.17
29371;BME280;16357;52.188;7.838;2022-07-29T07:21:03;100952.19;;;22.34;39.54
29371;BME280;16357;52.188;7.838;2022-07-29T07:23:31;100948.47;;;22.47;39.41
29371;BME280;16357;52.188;7.838;2022-07-29T07:25:57;100948.28;;;22.61;38.99
29371;BME280;16357;52.188;7.838;2022-07-29T07:28:24;100955.69;;;22.72;38.94
29371;BME280;16357;52.188;7.838;2022-07-29T07:30:51;100948.59;;;22.83;38.87
29371;BME280;16357;52.188;7.838;2022-07-29T07:33:18;100954.59;;;22.91;38.41
29371;BME280;16357;52.188;7.838;2022-07-29T07:35:45;100941.91;;;22.97;38.54
29371;BME280;16357;52.188;7.838;2022-07-29T07:38:12;100944.78;;;23.02;38.35
29371;BME280;16357;52.188;7.838;2022-07-29T07:40:40;100947.66;;;23.07;38.56
29371;BME280;16357;52.188;7.838;2022-07-29T07:43:06;100935.16;;;23.11;38.36
29371;BME280;16357;52.188;7.838;2022-07-29T07:45:33;100936.38;;;23.15;38.52
29371;BME280;16357;52.188;7.838;2022-07-29T07:48:00;100935.06;;;23.18;38.24
29371;BME280;16357;52.188;7.838;2022-07-29T07:50:26;100935.41;;;23.21;37.81
29371;BME280;16357;52.188;7.838;2022-07-29T07:52:55;100933.06;;;23.25;37.80
29371;BME280;16357;52.188;7.838;2022-07-29T07:55:25;100934.94;;;23.25;37.86
29371;BME280;16357;52.188;7.838;2022-07-29T07:57:52;100933.91;;;23.26;37.92
29371;BME280;16357;52.188;7.838;2022-07-29T08:00:19;100939.72;;;23.29;38.19
29371;BME280;16357;52.188;7.838;2022-07-29T08:02:49;100942.22;;;23.31;38.15
29371;BME280;16357;52.188;7.838;2022-07-29T08:05:16;100937.94;;;23.35;37.58
29371;BME280;16357;52.188;7.838;2022-07-29T08:07:46;100939.75;;;23.41;37.67
29371;BME280;16357;52.188;7.838;2022-07-29T08:10:14;100938.19;;;23.45;37.76
29371;BME280;16357;52.188;7.838;2022-07-29T08:12:43;100939.97;;;23.51;37.56
29371;BME280;16357;52.188;7.838;2022-07-29T08:15:09;100939.03;;;23.57;37.58
29371;BME280;16357;52.188;7.838;2022-07-29T08:17:35;100945.81;;;23.66;37.41
29371;BME280;16357;52.188;7.838;2022-07-29T08:20:02;100942.75;;;23.75;37.04
29371;BME280;16357;52.188;7.838;2022-07-29T08:22:29;100950.63;;;23.83;36.92
29371;BME280;16357;52.188;7.838;2022-07-29T08:24:56;100944.78;;;23.91;37.12
29371;BME280;16357;52.188;7.838;2022-07-29T08:27:22;100947.97;;;24.00;36.99
29371;BME280;16357;52.188;7.838;2022-07-29T08:30:09;100936.97;;;24.12;36.57
29371;BME280;16357;52.188;7.838;2022-07-29T08:32:36;100929.56;;;24.24;36.91
29371;BME280;16357;52.188;7.838;2022-07-29T08:35:20;100933.72;;;24.38;36.30
29371;BME280;16357;52.188;7.838;2022-07-29T08:37:47;100932.38;;;24.52;36.63
29371;BME280;16357;52.188;7.838;2022-07-29T08:40:13;100927.19;;;24.68;35.99
29371;BME280;16357;52.188;7.838;2022-07-29T08:42:43;100934.84;;;24.83;36.31
29371;BME280;16357;52.188;7.838;2022-07-29T08:45:09;100934.53;;;24.96;35.66
29371;BME280;16357;52.188;7.838;2022-07-29T08:47:38;100933.16;;;25.10;35.27
29371;BME280;16357;52.188;7.838;2022-07-29T08:50:09;100932.03;;;25.23;35.25
29371;BME280;16357;52.188;7.838;2022-07-29T08:52:38;100930.88;;;25.36;35.20
29371;BME280;16357;52.188;7.838;2022-07-29T08:55:07;100926.09;;;25.48;35.01
29371;BME280;16357;52.188;7.838;2022-07-29T08:57:34;100926.00;;;25.60;34.85
29371;BME280;16357;52.188;7.838;2022-07-29T09:00:05;100923.97;;;25.72;34.99
29371;BME280;16357;52.188;7.838;2022-07-29T09:02:39;100928.78;;;25.82;34.77
29371;BME280;16357;52.188;7.838;2022-07-29T09:05:07;100922.88;;;25.90;34.66
29371;BME280;16357;52.188;7.838;2022-07-29T09:07:34;100926.06;;;25.99;33.88
29371;BME280;16357;52.188;7.838;2022-07-29T09:10:01;100921.69;;;26.03;33.85
29371;BME280;16357;52.188;7.838;2022-07-29T09:12:30;100919.53;;;26.05;33.91
29371;BME280;16357;52.188;7.838;2022-07-29T09:15:03;100924.75;;;26.06;33.96
29371;BME280;16357;52.188;7.838;2022-07-29T09:17:46;100926.16;;;26.09;33.72
29371;BME280;16357;52.188;7.838;2022-07-29T09:20:16;100925.91;;;26.11;33.87
29371;BME280;16357;52.188;7.838;2022-07-29T09:22:44;100913.56;;;26.13;33.43
29371;BME280;16357;52.188;7.838;2022-07-29T09:25:32;100911.72;;;26.19;33.76
29371;BME280;16357;52.188;7.838;2022-07-29T09:28:12;100906.84;;;26.26;34.00
29371;BME280;16357;52.188;7.838;2022-07-29T09:30:53;100904.16;;;26.31;33.64
29371;BME280;16357;52.188;7.838;2022-07-29T09:33:21;100901.16;;;26.33;33.09
29371;BME280;16357;52.188;7.838;2022-07-29T09:36:08;100908.38;;;26.39;33.61
29371;BME280;16357;52.188;7.838;2022-07-29T09:38:35;100913.38;;;26.42;33.53
29371;BME280;16357;52.188;7.838;2022-07-29T09:41:04;100913.44;;;26.47;33.14
29371;BME280;16357;52.188;7.838;2022-07-29T09:43:33;100917.09;;;26.53;33.20
29371;BME280;16357;52.188;7.838;2022-07-29T09:46:10;100918.56;;;26.60;33.45
29371;BME280;16357;52.188;7.838;2022-07-29T09:48:37;100918.03;;;26.63;32.88
29371;BME280;16357;52.188;7.838;2022-07-29T09:51:04;100913.09;;;26.65;32.94
29371;BME280;16357;52.188;7.838;2022-07-29T09:53:36;100922.19;;;26.66;32.87
29371;BME280;16357;52.188;7.838;2022-07-29T09:56:04;100924.13;;;26.65;32.63
29371;BME280;16357;52.188;7.838;2022-07-29T09:58:31;100925.72;;;26.61;32.07
29371;BME280;16357;52.188;7.838;2022-07-29T10:00:59;100928.41;;;26.56;32.74
29371;BME280;16357;52.188;7.838;2022-07-29T10:03:26;100924.75;;;26.50;32.57
29371;BME280;16357;52.188;7.838;2022-07-29T10:06:09;100929.94;;;26.47;33.04
29371;BME280;16357;52.188;7.838;2022-07-29T10:08:37;100937.56;;;26.40;33.87
29371;BME280;16357;52.188;7.838;2022-07-29T10:11:17;100943.56;;;26.37;33.83
29371;BME280;16357;52.188;7.838;2022-07-29T10:13:46;100934.66;;;26.30;34.22
29371;BME280;16357;52.188;7.838;2022-07-29T10:16:14;100935.72;;;26.23;34.33
29371;BME280;16357;52.188;7.838;2022-07-29T10:18:42;100927.09;;;26.15;34.15
29371;BME280;16357;52.188;7.838;2022-07-29T10:21:10;100934.09;;;26.05;33.84
29371;BME280;16357;52.188;7.838;2022-07-29T10:23:56;100920.47;;;25.94;34.00
29371;BME280;16357;52.188;7.838;2022-07-29T10:26:26;100917.81;;;25.82;34.21
29371;BME280;16357;52.188;7.838;2022-07-29T10:28:53;100916.81;;;25.71;34.39
29371;BME280;16357;52.188;7.838;2022-07-29T10:31:28;100915.84;;;25.60;34.40
29371;BME280;16357;52.188;7.838;2022-07-29T10:34:07;100910.19;;;25.50;34.57
29371;BME280;16357;52.188;7.838;2022-07-29T10:43:31;100911.97;;;25.23;34.88
29371;BME280;16357;52.188;7.838;2022-07-29T10:46:03;100913.44;;;25.13;34.94
29371;BME280;16357;52.188;7.838;2022-07-29T10:48:32;100906.44;;;25.06;34.77
29371;BME280;16357;52.188;7.838;2022-07-29T10:51:04;100902.53;;;25.02;34.79
29371;BME280;16357;52.188;7.838;2022-07-29T10:53:52;100900.53;;;24.97;34.54
29371;BME280;16357;52.188;7.838;2022-07-29T10:56:27;100891.94;;;24.93;34.74
29371;BME280;16357;52.188;7.838;2022-07-29T11:01:40;100897.44;;;24.93;35.90
29371;BME280;16357;52.188;7.838;2022-07-29T11:07:10;100897.19;;;24.95;36.37
29371;BME280;16357;52.188;7.838;2022-07-29T11:09:37;100898.03;;;24.95;36.32
29371;BME280;16357;52.188;7.838;2022-07-29T11:15:06;100904.09;;;24.97;36.93
29371;BME280;16357;52.188;7.838;2022-07-29T11:28:48;100893.53;;;24.89;37.20
29371;BME280;16357;52.188;7.838;2022-07-29T11:31:34;100902.38;;;24.91;37.20
29371;BME280;16357;52.188;7.838;2022-07-29T11:47:55;100903.66;;;25.17;36.71
29371;BME280;16357;52.188;7.838;2022-07-29T11:50:44;100903.75;;;25.23;37.42
29371;BME280;16357;52.188;7.838;2022-07-29T11:53:13;100904.88;;;25.27;37.23
29371;BME280;16357;52.188;7.838;2022-07-29T11:55:41;100915.38;;;25.30;37.31
29371;BME280;16357;52.188;7.838;2022-07-29T11:58:21;100911.28;;;25.32;37.83
29371;BME280;16357;52.188;7.838;2022-07-29T12:00:50;100905.78;;;25.32;38.57
29371;BME280;16357;52.188;7.838;2022-07-29T12:03:24;100903.06;;;25.32;38.14
29371;BME280;16357;52.188;7.838;2022-07-29T12:06:11;100911.22;;;25.27;38.40
29371;BME280;16357;52.188;7.838;2022-07-29T12:08:42;100910.56;;;25.20;38.71
29371;BME280;16357;52.188;7.838;2022-07-29T12:11:16;100912.13;;;25.16;38.98
29371;BME280;16357;52.188;7.838;2022-07-29T12:13:46;100920.50;;;25.09;38.92
29371;BME280;16357;52.188;7.838;2022-07-29T12:16:14;100917.69;;;25.04;38.91
29371;BME280;16357;52.188;7.838;2022-07-29T12:19:01;100922.81;;;25.01;38.90
29371;BME280;16357;52.188;7.838;2022-07-29T12:21:43;100933.47;;;24.97;38.67
29371;BME280;16357;52.188;7.838;2022-07-29T12:24:22;100931.47;;;24.92;39.54
29371;BME280;16357;52.188;7.838;2022-07-29T12:26:57;100930.31;;;24.88;39.48
29371;BME280;16357;52.188;7.838;2022-07-29T12:29:24;100943.44;;;24.86;39.63
29371;BME280;16357;52.188;7.838;2022-07-29T12:32:01;100942.84;;;24.84;40.05
29371;BME280;16357;52.188;7.838;2022-07-29T12:34:30;100939.50;;;24.82;39.85
29371;BME280;16357;52.188;7.838;2022-07-29T12:36:57;100941.19;;;24.83;41.39
29371;BME280;16357;52.188;7.838;2022-07-29T12:39:23;100936.75;;;24.82;40.95
29371;BME280;16357;52.188;7.838;2022-07-29T12:41:53;100936.75;;;24.82;40.91
29371;BME280;16357;52.188;7.838;2022-07-29T12:44:49;100941.75;;;24.85;40.71
29371;BME280;16357;52.188;7.838;2022-07-29T12:47:16;100929.22;;;24.89;39.68
29371;BME280;16357;52.188;7.838;2022-07-29T12:49:46;100932.78;;;24.90;41.09
29371;BME280;16357;52.188;7.838;2022-07-29T12:52:30;100921.56;;;24.91;42.14
29371;BME280;16357;52.188;7.838;2022-07-29T12:54:57;100925.66;;;24.89;41.81
29371;BME280;16357;52.188;7.838;2022-07-29T12:57:23;100914.06;;;24.87;41.70
29371;BME280;16357;52.188;7.838;2022-07-29T13:00:11;100912.06;;;24.82;42.26
29371;BME280;16357;52.188;7.838;2022-07-29T13:02:39;100899.00;;;24.72;42.90
29371;BME280;16357;52.188;7.838;2022-07-29T13:05:08;100895.81;;;24.64;43.01
29371;BME280;16357;52.188;7.838;2022-07-29T13:07:36;100891.81;;;24.55;43.09
29371;BME280;16357;52.188;7.838;2022-07-29T13:10:22;100888.25;;;24.42;42.99
29371;BME280;16357;52.188;7.838;2022-07-29T13:13:12;100894.34;;;24.32;42.02
29371;BME280;16357;52.188;7.838;2022-07-29T13:15:44;100889.53;;;24.23;42.65
29371;BME280;16357;52.188;7.838;2022-07-29T13:18:34;100884.66;;;24.13;42.23
29371;BME280;16357;52.188;7.838;2022-07-29T13:21:12;100888.00;;;24.03;42.12
29371;BME280;16357;52.188;7.838;2022-07-29T13:23:39;100893.88;;;23.95;43.13
29371;BME280;16357;52.188;7.838;2022-07-29T13:26:09;100891.50;;;23.87;42.85
29371;BME280;16357;52.188;7.838;2022-07-29T13:28:36;100897.72;;;23.82;42.75
29371;BME280;16357;52.188;7.838;2022-07-29T13:31:03;100905.59;;;23.79;42.79
29371;BME280;16357;52.188;7.838;2022-07-29T13:33:31;100904.38;;;23.75;42.86
29371;BME280;16357;52.188;7.838;2022-07-29T13:35:57;100902.97;;;23.72;42.64
29371;BME280;16357;52.188;7.838;2022-07-29T13:38:24;100902.13;;;23.72;43.35
29371;BME280;16357;52.188;7.838;2022-07-29T13:40:56;100898.53;;;23.71;43.23
29371;BME280;16357;52.188;7.838;2022-07-29T13:43:23;100896.66;;;23.72;43.30
29371;BME280;16357;52.188;7.838;2022-07-29T13:45:49;100889.25;;;23.72;43.31
29371;BME280;16357;52.188;7.838;2022-07-29T13:48:16;100899.16;;;23.73;42.68
29371;BME280;16357;52.188;7.838;2022-07-29T13:50:42;100893.44;;;23.75;42.83
29371;BME280;16357;52.188;7.838;2022-07-29T13:53:09;100893.81;;;23.78;42.69